Bhakkar Weather



Bhakkar's Current Weather

Temprature 8.02o clear sky

clear sky

Rain: 0 %

Min Temprature8.02o
Max Temprature8.02o
Humidity53
Wind Speed2.01 m/h
Sun Rise07:15:00
Sun Set17:36:50
Current Time: 18-Jan-2021 06:10:39
Lat/Lon: 31.6253, 71.0657




Bhakkar's Geo Location



Bhakkar's Weather Forecast

Time Overall Temp Min Temp Max Temp Humidity Wind Speed Rain
18-Jan-2021 (Mon)
08:00:00 clear sky 8.990 8.990 9.030 50 2.12 m/h 0 %
11:00:00 clear sky 14.530 14.530 16.070 35 2.14 m/h 0 %
14:00:00 clear sky 19.250 19.250 19.950 25 2.12 m/h 0 %
17:00:00 clear sky 17.320 17.320 17.390 29 1.31 m/h 0 %
20:00:00 clear sky 11.530 11.530 11.530 42 0.37 m/h 0 %
23:00:00 clear sky 10.640 10.640 10.640 43 1.2 m/h 0 %
19-Jan-2021 (Tue)
02:00:00 clear sky 10.100 10.100 10.100 44 1.8 m/h 0 %
05:00:00 clear sky 8.750 8.750 8.750 47 1.37 m/h 0 %
08:00:00 clear sky 9.990 9.990 9.990 44 0.73 m/h 0 %
11:00:00 clear sky 19.670 19.670 19.670 23 1.44 m/h 0 %
14:00:00 clear sky 22.890 22.890 22.890 19 0.23 m/h 0 %
17:00:00 clear sky 19.870 19.870 19.870 24 2.04 m/h 0 %
20:00:00 clear sky 14.360 14.360 14.360 34 1.81 m/h 0 %
23:00:00 clear sky 13.120 13.120 13.120 36 1.99 m/h 0 %
20-Jan-2021 (Wed)
02:00:00 clear sky 11.660 11.660 11.660 39 1.82 m/h 0 %
05:00:00 clear sky 9.990 9.990 9.990 43 1.27 m/h 0 %
08:00:00 clear sky 11.490 11.490 11.490 41 0.84 m/h 0 %
11:00:00 clear sky 21.740 21.740 21.740 20 1.43 m/h 0 %
14:00:00 clear sky 24.890 24.890 24.890 17 1 m/h 0 %
17:00:00 clear sky 20.550 20.550 20.550 24 0.61 m/h 0 %
20:00:00 clear sky 16.450 16.450 16.450 29 2.57 m/h 0 %
23:00:00 scattered clouds 14.710 14.710 14.710 32 2.19 m/h 0 %
21-Jan-2021 (Thu)
02:00:00 overcast clouds 12.100 12.100 12.100 39 0.96 m/h 0 %
05:00:00 scattered clouds 10.940 10.940 10.940 41 1.04 m/h 0 %
08:00:00 clear sky 12.510 12.510 12.510 38 1.11 m/h 0 %
11:00:00 clear sky 22.300 22.300 22.300 20 1.32 m/h 0 %
14:00:00 clear sky 25.290 25.290 25.290 17 2.57 m/h 0 %
17:00:00 clear sky 22.300 22.300 22.300 21 3.4 m/h 0 %
20:00:00 clear sky 17.470 17.470 17.470 27 2.75 m/h 0 %
23:00:00 clear sky 16.340 16.340 16.340 29 2.93 m/h 0 %
22-Jan-2021 (Fri)
02:00:00 clear sky 13.030 13.030 13.030 37 2.4 m/h 0 %
05:00:00 clear sky 11.940 11.940 11.940 39 2.85 m/h 0 %
08:00:00 few clouds 11.720 11.720 11.720 40 3.25 m/h 0 %
11:00:00 broken clouds 17.900 17.900 17.900 27 3.12 m/h 0 %
14:00:00 overcast clouds 21.190 21.190 21.190 22 2.74 m/h 0 %
17:00:00 overcast clouds 19.370 19.370 19.370 26 1.75 m/h 0 %
20:00:00 overcast clouds 14.160 14.160 14.160 36 1.34 m/h 0 %
23:00:00 overcast clouds 15.150 15.150 15.150 33 3.35 m/h 0 %
23-Jan-2021 (Sat)
02:00:00 broken clouds 12.710 12.710 12.710 35 3.54 m/h 0 %
05:00:00 scattered clouds 11.500 11.500 11.500 32 5.35 m/h 0 %


Bhakkar's Tourist Spots

Historical Places in Bhakkar

Famous Cities (60)